Terminal Aerodrome Forecast
Issued by NWS Cleveland, OH

Home | Current Version | Previous Version | Graphics & Text | Print | Product List | Glossary Off
Versions: 1 2 3 4 5 6 7 8 9 10 11 12 13 14

236
FTUS41 KCLE 292327
TAFTOL
TAF
KTOL 292327Z 3000/3024 27010KT P6SM FEW060
     FM301400 27008KT P6SM BKN030
     FM301600 27008KT P6SM BKN040=

USA.gov is the U.S. government's official web portal to all federal, state and local government web resources and services.